• Join FlightAware (Why Join?)
  • Login
  • US Flag 
12:40AM EDT


 

Airport Tracker/Info


-or-


 

Live Flight TrackerFlight Track Log ✈ N102WY ✈ 21-May-2013 ✈ KGEG - KRKS

Flight Track Log - Related Links

Times and Time Zones

All times are in EDT time to prevent confusion due to time zone crossing. See the N102WY flight status page for this flight to view local times or setup timezone preferences in your user account.

Time Position Orientation Groundspeed Altitude Reporting Facility
EDT Latitude Longitude Course Direction KTS MPH feet Rate Location/Type
03:28PM 47.5528 -117.5594 133° Southeast 206 237 7,200  Level Seattle Center
03:29PM 47.5086 -117.4817 130° Southeast 231 266 11,000 2,460 Climbing Seattle Center
03:30PM 47.4606 -117.3961 130° Southeast 271 312 12,300 1,560 Climbing Seattle Center
03:31PM 47.4089 -117.3111 132° Southeast 277 319 14,200 1,920 Climbing Seattle Center
03:32PM 47.3608 -117.2300 131° Southeast 265 305 16,300 2,220 Climbing Seattle Center
03:33PM 47.2085 -116.8686 133° Southeast  Level FlightAware Approximate
03:33PM 47.3164 -117.1603 133° Southeast 260 299 18,800  Level Seattle Center
03:34PM 47.1387 -116.7600 133° Southeast  Level FlightAware Approximate
03:34PM 47.2656 -117.0742 131° Southeast 263 303 21,300  Level Seattle Center
03:35PM 47.2150 -116.9956 133° Southeast 265 305 23,400 1,980 Climbing Seattle Center
03:36PM 47.1653 -116.9122 131° Southeast 283 326 25,300 2,040 Climbing Seattle Center
03:37PM 47.0989 -116.8039 132° Southeast 297 342 27,600 2,100 Climbing Seattle Center
03:38PM 47.0411 -116.7094 132° Southeast 307 353 29,600 1,620 Climbing Seattle Center
03:39PM 46.9828 -116.6139 132° Southeast 314 361 31,000 1,080 Climbing Seattle Center
03:40PM 46.9183 -116.5114 133° Southeast 333 383 31,900 480 Climbing Seattle Center
03:42PM 46.8508 -116.4028 132° Southeast 355 409 32,000  Climbing Seattle Center
03:43PM 46.7819 -116.2933 133° Southeast 364 419 32,000  Level Seattle Center
03:44PM 46.7153 -116.1875 133° Southeast 360 414 32,000  Level Seattle Center
03:45PM 46.6481 -116.0814 133° Southeast 358 412 32,000 540 Level Seattle Center
03:46PM 46.5803 -115.9750 133° Southeast 358 412 33,200 1,320 Climbing Seattle Center
03:47PM 46.5142 -115.8706 133° Southeast 354 407 34,700 1,440 Climbing Seattle Center
03:48PM 46.4456 -115.7639 133° Southeast 359 413 36,200 1,680 Climbing Seattle Center
03:49PM 46.3639 -115.6372 133° Southeast 360 414 38,200 1,320 Climbing Seattle Center
03:50PM 46.2967 -115.5336 133° Southeast 356 410 39,000 360 Climbing Seattle Center
03:51PM 46.2289 -115.4272 133° Southeast 358 412 39,000  Level Seattle Center
03:52PM 46.1600 -115.3217 133° Southeast 361 415 39,000  Level Seattle Center
03:53PM 46.0875 -115.2078 133° Southeast 357 411 39,000  Level Seattle Center
03:54PM 46.0236 -115.1086 133° Southeast 354 407 39,000  Level Seattle Center
03:55PM 45.9614 -115.0136 133° Southeast 348 400 39,000  Level Seattle Center
03:56PM 45.8892 -114.9036 133° Southeast 342 394 39,000  Level Seattle Center
03:57PM 45.8253 -114.8083 134° Southeast 343 395 39,000  Level Seattle Center
03:58PM 45.7622 -114.7119 133° Southeast 345 397 39,000  Level Seattle Center
03:58PM 45.7411 -114.6803 134° Southeast 347 399 39,000  Level Salt Lake Center
03:59PM 45.6775 -114.5856 134° Southeast 345 397 39,000  Level Salt Lake Center
04:00PM 45.6014 -114.4722 134° Southeast 352 405 39,000  Level Salt Lake Center
04:01PM 45.5375 -114.3758 133° Southeast 349 402 39,000  Level Salt Lake Center
04:02PM 45.4708 -114.2786 134° Southeast 355 409 39,000  Level Salt Lake Center
04:03PM 45.3956 -114.1658 134° Southeast 352 405 39,000  Level Salt Lake Center
04:04PM 45.3286 -114.0683 134° Southeast 358 412 39,000  Level Salt Lake Center
04:05PM 45.2600 -113.9672 134° Southeast 358 412 39,000  Level Salt Lake Center
04:06PM 45.1833 -113.8567 135° Southeast 355 409 39,000  Level Salt Lake Center
04:07PM 45.1169 -113.7606 134° Southeast 356 410 39,000  Level Salt Lake Center
04:08PM 45.0411 -113.6478 134° Southeast 355 409 39,000  Level Salt Lake Center
04:09PM 44.9739 -113.5531 135° Southeast 357 411 39,000  Level Salt Lake Center
04:10PM 44.8967 -113.4403 134° Southeast 357 411 39,000  Level Salt Lake Center
04:11PM 44.8297 -113.3433 134° Southeast 359 413 39,000  Level Salt Lake Center
04:12PM 44.7619 -113.2475 135° Southeast 361 415 39,000  Level Salt Lake Center
04:13PM 44.6819 -113.1356 135° Southeast 362 417 39,000  Level Salt Lake Center
04:14PM 44.6153 -113.0397 134° Southeast 360 414 39,000  Level Salt Lake Center
04:15PM 44.5358 -112.9278 135° Southeast 361 415 39,000  Level Salt Lake Center
04:16PM 44.4683 -112.8317 135° Southeast 363 418 39,000  Level Salt Lake Center
04:17PM 44.3997 -112.7361 135° Southeast 363 418 39,000  Level Salt Lake Center
04:19PM 44.3181 -112.6222 135° Southeast 370 426 39,000  Level Salt Lake Center
04:20PM 44.2492 -112.5250 135° Southeast 370 426 39,000  Level Salt Lake Center
04:21PM 44.1675 -112.4128 135° Southeast 370 426 39,000  Level Salt Lake Center
04:22PM 44.0975 -112.3150 135° Southeast 373 429 39,000  Level Salt Lake Center
04:23PM 44.0167 -112.2061 136° Southeast 365 420 39,000  Level Salt Lake Center
04:24PM 43.9478 -112.1100 135° Southeast 367 422 39,000  Level Salt Lake Center
04:25PM 43.8783 -112.0164 136° Southeast 365 420 39,000  Level Salt Lake Center
04:26PM 43.7981 -111.9061 135° Southeast 365 420 39,000  Level Salt Lake Center
04:27PM 43.7275 -111.8108 136° Southeast 369 425 39,000  Level Salt Lake Center
04:28PM 43.6453 -111.7006 136° Southeast 368 423 39,000  Level Salt Lake Center
04:29PM 43.5756 -111.6067 136° Southeast 367 422 39,000  Level Salt Lake Center
04:30PM 43.4939 -111.4975 136° Southeast 366 421 39,000  Level Salt Lake Center
04:31PM 43.4244 -111.4033 135° Southeast 367 422 39,000  Level Salt Lake Center
04:32PM 43.3547 -111.3111 136° Southeast 366 421 39,000  Level Salt Lake Center
04:33PM 43.2731 -111.2033 136° Southeast 367 422 39,000  Level Salt Lake Center
04:34PM 43.2014 -111.1111 137° Southeast 369 425 39,000  Level Salt Lake Center
04:35PM 43.1194 -111.0033 136° Southeast 367 422 39,000  Level Salt Lake Center
04:36PM 43.0489 -110.9089 136° Southeast 370 426 39,000  Level Salt Lake Center
04:37PM 42.9650 -110.8011 137° Southeast 371 427 39,000  Level Salt Lake Center
04:38PM 42.8933 -110.7078 136° Southeast 372 428 39,000  Level Salt Lake Center
04:39PM 42.8183 -110.6203 139° Southeast 371 427 39,000  Level Salt Lake Center
04:40PM 42.7303 -110.5103 137° Southeast 370 426 39,000  Level Salt Lake Center
04:41PM 42.6556 -110.4200 138° Southeast 374 430 39,000  Level Salt Lake Center
04:42PM 42.5825 -110.3311 138° Southeast 371 427 39,000 -240 Level Salt Lake Center
04:43PM 42.4950 -110.2258 138° Southeast 375 432 38,600 -1,020 Descending Salt Lake Center
04:44PM 42.4181 -110.1358 139° Southeast 381 438 37,000 -2,160 Descending Salt Lake Center
04:45PM 42.3281 -110.0278 138° Southeast 387 445 34,200 -2,640 Descending Salt Lake Center
04:46PM 42.2497 -109.9339 138° Southeast 393 452 31,600 -2,880 Descending Salt Lake Center
04:47PM 42.1558 -109.8239 139° Southeast 399 459 28,300 -3,060 Descending Salt Lake Center
04:48PM 42.0781 -109.7314 139° Southeast 392 451 25,400 -2,820 Descending Salt Lake Center
04:49PM 42.0025 -109.6414 138° Southeast 381 438 22,600 -3,060 Descending Salt Lake Center
04:50PM 41.9181 -109.5417 139° Southeast 364 419 19,200 -3,120 Descending Salt Lake Center
04:51PM 41.8486 -109.4625 140° Southeast 349 402 16,300 -3,120 Descending Salt Lake Center
04:52PM 41.7728 -109.3731 139° Southeast 332 382 12,900 -2,880 Descending Salt Lake Center
04:53PM 41.7142 -109.3003 137° Southeast 314 361 10,400 -2,460 Descending Salt Lake Center